Time;durP1;ratioP1;P1;durP2;ratioP2;P2;SDS_P1;SDS_P2;PMS_P1;PMS_P2;Temp;Humidity;BMP_temperature;BMP_pressure;BME280_temperature;BME280_humidity;BME280_pressure;Samples;Min_cycle;Max_cycle;Signal;HPM_P1;HPM_P2
2021/03/03 00:01:58;;;;;;;38.37;16.70;;;;;;;7.00;74.52;97480.41;5039712;28;20475;-85
2021/03/03 00:04:24;;;;;;;34.13;15.80;;;;;;;7.02;74.15;97477.22;5039516;28;20474;-85
2021/03/03 00:06:50;;;;;;;34.93;15.90;;;;;;;7.00;73.94;97475.06;5039691;28;20515;-86
2021/03/03 00:09:16;;;;;;;24.83;14.93;;;;;;;6.96;74.24;97484.53;5039165;28;20620;-85
2021/03/03 00:11:43;;;;;;;34.43;16.30;;;;;;;6.90;73.90;97484.56;5039313;28;20422;-86
2021/03/03 00:14:10;;;;;;;29.00;15.47;;;;;;;6.87;74.38;97484.78;5039605;28;20449;-87
2021/03/03 00:16:36;;;;;;;32.57;16.50;;;;;;;6.83;74.56;97478.94;5039585;28;20444;-87
2021/03/03 00:19:02;;;;;;;30.20;16.70;;;;;;;6.80;74.69;97483.31;5040009;28;20496;-85
2021/03/03 00:21:28;;;;;;;37.73;18.27;;;;;;;6.78;74.72;97476.97;5040049;28;20449;-85
2021/03/03 00:23:54;;;;;;;36.50;17.60;;;;;;;6.75;74.97;97480.63;5038101;28;20455;-85
2021/03/03 00:26:20;;;;;;;33.27;17.07;;;;;;;6.72;74.53;97473.56;5039321;28;20410;-87
2021/03/03 00:28:47;;;;;;;35.60;18.47;;;;;;;6.64;74.92;97472.59;5055530;28;20526;-86
2021/03/03 00:31:14;;;;;;;32.27;17.03;;;;;;;6.56;75.07;97476.97;5060729;28;20443;-86
2021/03/03 00:33:40;;;;;;;33.57;17.60;;;;;;;6.53;75.31;97477.94;5048964;28;20479;-87
2021/03/03 00:36:06;;;;;;;34.10;17.70;;;;;;;6.44;75.99;97476.94;5041253;28;20455;-87
2021/03/03 00:38:33;;;;;;;33.50;17.73;;;;;;;6.42;76.17;97478.66;5040992;28;20438;-87
2021/03/03 00:40:58;;;;;;;30.90;16.43;;;;;;;6.41;76.22;97477.91;5040784;28;20488;-87
2021/03/03 00:43:24;;;;;;;34.80;18.50;;;;;;;6.38;76.24;97478.88;5048252;28;20422;-86
2021/03/03 00:45:51;;;;;;;31.67;17.90;;;;;;;6.30;76.48;97482.50;5060572;28;20486;-86
2021/03/03 00:48:18;;;;;;;33.30;16.90;;;;;;;6.24;76.72;97477.13;5060309;28;20553;-86
2021/03/03 00:50:44;;;;;;;34.70;16.70;;;;;;;6.18;76.71;97471.03;5060388;28;20471;-86
2021/03/03 00:53:10;;;;;;;38.37;17.80;;;;;;;6.12;77.06;97470.28;5041802;28;20878;-85
2021/03/03 00:55:36;;;;;;;36.37;16.23;;;;;;;6.10;76.71;97472.72;5038453;28;20463;-85
2021/03/03 00:58:03;;;;;;;35.97;17.00;;;;;;;6.09;76.63;97473.19;5038735;28;20462;-85
2021/03/03 01:00:29;;;;;;;29.07;18.30;;;;;;;6.06;76.66;97474.16;5038787;28;20526;-85
2021/03/03 01:02:56;;;;;;;36.97;17.33;;;;;;;6.11;76.56;97476.13;5038867;28;20484;-86
2021/03/03 01:05:23;;;;;;;29.27;16.23;;;;;;;6.05;77.14;97472.66;5038592;28;20426;-87
2021/03/03 01:07:50;;;;;;;38.73;19.50;;;;;;;6.01;76.83;97469.50;5038694;28;21050;-87
2021/03/03 01:10:16;;;;;;;35.07;17.47;;;;;;;5.99;77.31;97469.25;5038345;28;20497;-87
2021/03/03 01:12:42;;;;;;;33.20;18.33;;;;;;;6.00;77.03;97462.69;5038148;28;20459;-87
2021/03/03 01:15:10;;;;;;;34.80;16.43;;;;;;;6.03;76.44;97462.44;5038418;28;20512;-87
2021/03/03 01:17:37;;;;;;;35.03;16.37;;;;;;;6.05;76.86;97459.28;5038384;28;20453;-86
2021/03/03 01:20:05;;;;;;;35.10;18.27;;;;;;;6.08;76.26;97461.00;5038484;28;20409;-86
2021/03/03 01:22:31;;;;;;;32.67;15.73;;;;;;;6.12;76.48;97459.56;5038627;28;20467;-87
2021/03/03 01:24:57;;;;;;;33.53;15.93;;;;;;;6.16;75.98;97457.38;5038712;28;20450;-87
2021/03/03 01:27:23;;;;;;;36.43;17.67;;;;;;;6.20;75.38;97463.22;5054169;28;20448;-87
2021/03/03 01:29:49;;;;;;;37.83;15.80;;;;;;;6.20;75.56;97454.47;5059576;28;20472;-86
2021/03/03 01:32:16;;;;;;;32.80;16.97;;;;;;;6.23;75.69;97456.19;5059489;28;20453;-87
2021/03/03 01:34:42;;;;;;;35.27;18.13;;;;;;;6.24;75.34;97444.97;5040795;28;20434;-87
2021/03/03 01:37:09;;;;;;;33.37;16.90;;;;;;;6.25;74.72;97446.44;5037758;28;21013;-87
2021/03/03 01:39:35;;;;;;;31.80;17.43;;;;;;;6.29;74.78;97446.94;5037902;28;20821;-87
2021/03/03 01:42:01;;;;;;;24.30;14.90;;;;;;;6.27;74.77;97444.00;5038117;28;20443;-87
2021/03/03 01:44:28;;;;;;;30.73;16.77;;;;;;;6.31;74.24;97444.50;5037802;28;20455;-87
2021/03/03 01:46:54;;;;;;;43.57;17.80;;;;;;;6.27;74.25;97444.00;5038010;28;20450;-86
2021/03/03 01:49:20;;;;;;;32.00;15.60;;;;;;;6.27;74.73;97443.25;5038037;28;20566;-87
2021/03/03 01:51:46;;;;;;;28.47;16.50;;;;;;;6.28;74.63;97447.41;5037910;28;20428;-87
2021/03/03 01:54:13;;;;;;;31.23;14.80;;;;;;;6.24;75.06;97439.59;5037499;28;20495;-87
2021/03/03 01:56:39;;;;;;;30.30;16.57;;;;;;;6.16;74.64;97433.28;5038708;28;20447;-87
2021/03/03 01:59:05;;;;;;;33.63;15.63;;;;;;;6.12;75.12;97429.34;5038055;28;20447;-87
2021/03/03 02:01:31;;;;;;;30.70;16.67;;;;;;;6.07;75.13;97430.81;5037473;28;20408;-88
2021/03/03 02:03:57;;;;;;;29.27;15.20;;;;;;;6.04;75.29;97431.78;5037400;28;20852;-87
2021/03/03 02:06:29;;;;;;;30.87;16.57;;;;;;;6.01;75.80;97434.69;5037565;28;20512;-86
2021/03/03 02:09:01;;;;;;;33.43;16.93;;;;;;;5.97;75.90;97436.84;5037200;28;20471;-86
2021/03/03 02:11:38;;;;;;;29.20;15.30;;;;;;;5.93;76.33;97429.06;5037305;28;20803;-86
2021/03/03 02:14:09;;;;;;;32.60;17.23;;;;;;;5.91;76.44;97429.53;5036626;28;20443;-86
2021/03/03 02:16:36;;;;;;;37.07;18.03;;;;;;;5.88;76.05;97430.50;5037149;28;20423;-85
2021/03/03 02:19:04;;;;;;;43.23;17.47;;;;;;;5.88;76.84;97427.84;5037269;28;20422;-85
2021/03/03 02:21:35;;;;;;;30.47;16.83;;;;;;;5.86;76.47;97424.88;5036985;28;20447;-85
2021/03/03 02:24:06;;;;;;;36.63;18.67;;;;;;;5.85;76.46;97423.44;5037138;28;20968;-86
2021/03/03 02:26:34;;;;;;;32.23;17.33;;;;;;;5.82;76.79;97426.31;5037094;28;20436;-85
2021/03/03 02:29:02;;;;;;;34.67;17.40;;;;;;;5.83;77.13;97428.50;5037493;28;20537;-85
2021/03/03 02:31:29;;;;;;;30.67;16.67;;;;;;;5.88;76.85;97424.41;5036596;28;20815;-86
2021/03/03 02:33:56;;;;;;;31.27;16.17;;;;;;;5.88;76.83;97421.75;5036800;28;20455;-87
2021/03/03 02:36:23;;;;;;;30.40;16.50;;;;;;;5.90;76.64;97425.41;5037244;28;20447;-87
2021/03/03 02:38:49;;;;;;;35.93;17.53;;;;;;;5.90;76.52;97416.63;5037223;28;20807;-88
2021/03/03 02:41:17;;;;;;;32.43;16.40;;;;;;;5.90;76.47;97419.31;5036953;28;20412;-87
2021/03/03 02:43:44;;;;;;;27.57;15.97;;;;;;;5.95;76.34;97429.31;5036604;28;20498;-87
2021/03/03 02:46:11;;;;;;;29.30;16.77;;;;;;;5.97;76.40;97415.44;5036682;28;20806;-87
2021/03/03 02:48:38;;;;;;;33.10;16.87;;;;;;;5.90;76.67;97422.72;5036475;28;20530;-86
2021/03/03 02:51:04;;;;;;;37.83;17.70;;;;;;;5.87;76.23;97430.97;5036881;28;20439;-87
2021/03/03 02:53:30;;;;;;;31.77;16.10;;;;;;;5.84;76.36;97427.28;5037376;28;20880;-87
2021/03/03 02:55:56;;;;;;;35.77;17.03;;;;;;;5.79;76.91;97435.31;5037264;28;20564;-87
2021/03/03 02:58:23;;;;;;;36.23;17.57;;;;;;;5.77;77.24;97440.41;5036953;28;20788;-87
2021/03/03 03:00:55;;;;;;;36.53;18.20;;;;;;;5.78;77.41;97436.53;5036595;28;20479;-88
2021/03/03 03:03:25;;;;;;;31.83;16.27;;;;;;;5.77;77.11;97433.09;5036917;28;20437;-87
2021/03/03 03:05:59;;;;;;;40.07;18.73;;;;;;;5.70;77.21;97422.84;5036726;28;20424;-87
2021/03/03 03:08:27;;;;;;;36.73;17.80;;;;;;;5.68;77.36;97413.84;5036831;28;20470;-85
2021/03/03 03:10:53;;;;;;;32.03;17.63;;;;;;;5.68;77.09;97411.91;5036392;28;20891;-85
2021/03/03 03:13:21;;;;;;;30.17;15.40;;;;;;;5.67;77.76;97409.72;5036548;28;20542;-85
2021/03/03 03:15:51;;;;;;;34.90;17.73;;;;;;;5.63;77.54;97409.19;5036645;28;20526;-86
2021/03/03 03:18:22;;;;;;;29.97;17.03;;;;;;;5.65;77.70;97410.19;5036014;28;20426;-85
2021/03/03 03:20:50;;;;;;;29.43;16.23;;;;;;;5.67;77.62;97415.78;5036391;28;20443;-85
2021/03/03 03:23:18;;;;;;;34.07;16.87;;;;;;;5.68;77.53;97413.84;5036664;28;20444;-85
2021/03/03 03:25:46;;;;;;;37.60;18.17;;;;;;;5.74;77.36;97417.25;5036219;28;20436;-85
2021/03/03 03:28:13;;;;;;;33.60;17.70;;;;;;;5.72;77.12;97406.31;5036299;28;20437;-85
2021/03/03 03:30:40;;;;;;;33.70;16.93;;;;;;;5.72;77.28;97407.06;5036049;28;20424;-86
2021/03/03 03:33:08;;;;;;;30.77;16.17;;;;;;;5.73;77.52;97413.16;5035873;28;20425;-85
2021/03/03 03:35:36;;;;;;;33.70;17.70;;;;;;;5.75;77.59;97410.69;5035831;28;20443;-86
2021/03/03 03:38:03;;;;;;;32.77;18.50;;;;;;;5.72;77.14;97407.06;5036396;28;20443;-85
2021/03/03 03:40:29;;;;;;;36.20;17.70;;;;;;;5.75;77.12;97411.44;5036358;28;20455;-85
2021/03/03 03:42:56;;;;;;;37.37;18.37;;;;;;;5.78;77.41;97418.50;5056818;28;20450;-86
2021/03/03 03:45:24;;;;;;;39.93;17.10;;;;;;;5.79;77.29;97419.97;5057580;28;20916;-85
2021/03/03 03:47:51;;;;;;;30.30;17.53;;;;;;;5.78;77.24;97417.78;5057960;28;20398;-85
2021/03/03 03:50:21;;;;;;;30.83;16.50;;;;;;;5.80;77.30;97426.03;5049960;28;20841;-85
2021/03/03 03:52:51;;;;;;;38.30;17.97;;;;;;;5.80;77.13;97423.38;5036572;28;20465;-85
2021/03/03 03:55:17;;;;;;;28.50;16.23;;;;;;;5.78;77.25;97425.81;5036472;28;20447;-85
2021/03/03 03:57:49;;;;;;;37.83;19.23;;;;;;;5.77;77.37;97430.44;5036988;28;20439;-87
2021/03/03 04:00:18;;;;;;;28.27;15.40;;;;;;;5.78;77.64;97439.19;5040470;28;20539;-87
2021/03/03 04:02:45;;;;;;;29.23;15.53;;;;;;;5.78;77.15;97436.53;5040039;28;20998;-87
2021/03/03 04:05:12;;;;;;;41.37;19.70;;;;;;;5.75;77.44;97432.13;5040153;28;20549;-87
2021/03/03 04:07:39;;;;;;;36.30;15.60;;;;;;;5.74;77.37;97431.38;5040442;28;20435;-87
2021/03/03 04:10:07;;;;;;;28.37;16.43;;;;;;;5.72;76.89;97433.81;5039966;28;20487;-87
2021/03/03 04:12:33;;;;;;;31.10;16.87;;;;;;;5.67;77.36;97436.47;5039471;28;21045;-87
2021/03/03 04:14:59;;;;;;;26.47;15.97;;;;;;;5.63;77.61;97433.28;5039855;28;20438;-87
2021/03/03 04:17:25;;;;;;;29.73;15.80;;;;;;;5.63;77.23;97435.97;5039683;28;20542;-87
2021/03/03 04:19:51;;;;;;;33.87;16.73;;;;;;;5.62;77.89;97439.84;5040335;28;20453;-87
2021/03/03 04:22:18;;;;;;;30.27;16.27;;;;;;;5.58;77.74;97442.00;5040246;28;20475;-87
2021/03/03 04:24:45;;;;;;;34.97;15.97;;;;;;;5.55;77.67;97440.28;5039612;28;20440;-87
2021/03/03 04:27:11;;;;;;;32.93;16.57;;;;;;;5.50;78.08;97441.75;5039218;28;20458;-85
2021/03/03 04:29:37;;;;;;;26.87;15.40;;;;;;;5.47;78.36;97444.66;5038981;28;21002;-86
2021/03/03 04:32:03;;;;;;;29.53;15.63;;;;;;;5.45;78.34;97441.72;5039253;28;21013;-85
2021/03/03 04:34:29;;;;;;;34.60;17.07;;;;;;;5.47;78.20;97432.00;5039794;28;20458;-86
2021/03/03 04:36:55;;;;;;;33.17;19.73;;;;;;;5.43;78.34;97431.50;5039416;28;20444;-87
2021/03/03 04:39:22;;;;;;;32.50;16.13;;;;;;;5.48;78.17;97435.41;5039693;28;20864;-87
2021/03/03 04:41:48;;;;;;;32.23;18.10;;;;;;;5.49;78.38;97440.28;5039649;28;20817;-87
2021/03/03 04:44:15;;;;;;;26.67;15.50;;;;;;;5.51;77.90;97437.88;5039875;28;20507;-87
2021/03/03 04:46:41;;;;;;;28.93;15.40;;;;;;;5.56;78.29;97437.16;5039768;28;20569;-87
2021/03/03 04:49:07;;;;;;;33.53;18.33;;;;;;;5.56;78.00;97436.41;5039450;28;20469;-87
2021/03/03 04:51:34;;;;;;;34.13;17.77;;;;;;;5.55;77.45;97440.28;5039734;28;20858;-87
2021/03/03 04:54:00;;;;;;;30.47;16.60;;;;;;;5.55;77.93;97438.34;5038625;28;20451;-88
2021/03/03 04:56:27;;;;;;;33.53;18.37;;;;;;;5.55;77.71;97440.28;5039724;28;20526;-87
2021/03/03 04:58:53;;;;;;;30.23;18.20;;;;;;;5.60;77.61;97439.59;5039220;28;20474;-87
2021/03/03 05:01:20;;;;;;;39.50;16.37;;;;;;;5.60;77.53;97440.34;5039801;28;20453;-87
2021/03/03 05:03:46;;;;;;;32.70;17.53;;;;;;;5.62;77.82;97437.91;5039023;28;20563;-86
2021/03/03 05:06:12;;;;;;;31.00;17.33;;;;;;;5.64;77.22;97430.13;5039059;28;20424;-86
2021/03/03 05:08:38;;;;;;;30.37;17.30;;;;;;;5.64;77.75;97432.09;5039011;28;20559;-86
2021/03/03 05:11:04;;;;;;;33.57;16.27;;;;;;;5.62;77.78;97429.16;5038803;28;20425;-87
2021/03/03 05:13:30;;;;;;;37.67;17.23;;;;;;;5.60;77.53;97431.56;5039080;28;20532;-85
2021/03/03 05:15:58;;;;;;;37.63;17.60;;;;;;;5.61;77.71;97427.66;5038204;28;20447;-85
2021/03/03 05:18:24;;;;;;;32.20;17.57;;;;;;;5.61;77.63;97428.41;5038669;28;20535;-85
2021/03/03 05:20:51;;;;;;;32.53;17.00;;;;;;;5.64;77.80;97426.75;5038493;28;20447;-85
2021/03/03 05:23:26;;;;;;;34.13;19.60;;;;;;;5.65;77.82;97428.19;5038169;28;20467;-85
2021/03/03 05:25:52;;;;;;;32.07;17.57;;;;;;;5.62;77.63;97424.53;5038197;28;20423;-85
2021/03/03 05:28:18;;;;;;;28.57;17.27;;;;;;;5.68;76.91;97421.88;5038693;28;20453;-85
2021/03/03 05:30:44;;;;;;;35.30;18.50;;;;;;;5.64;77.64;97430.13;5038394;28;20431;-86
2021/03/03 05:33:11;;;;;;;28.40;16.63;;;;;;;5.66;77.13;97424.31;5038913;28;20470;-87
2021/03/03 05:35:37;;;;;;;29.13;17.30;;;;;;;5.65;77.11;97414.78;5039130;28;20802;-86
2021/03/03 05:38:03;;;;;;;32.07;16.33;;;;;;;5.66;77.76;97418.94;5038971;28;20462;-87
2021/03/03 05:40:29;;;;;;;36.70;18.07;;;;;;;5.62;77.40;97416.50;5039109;28;20524;-87
2021/03/03 05:42:56;;;;;;;30.23;17.07;;;;;;;5.61;77.57;97411.59;5052737;28;20447;-86
2021/03/03 05:45:22;;;;;;;28.87;17.10;;;;;;;5.64;77.74;97405.31;5058813;28;20445;-86
2021/03/03 05:47:51;;;;;;;28.23;17.00;;;;;;;5.64;77.30;97406.03;5048746;28;20463;-84
2021/03/03 05:50:21;;;;;;;23.93;15.33;;;;;;;5.60;77.65;97405.53;5039527;28;20511;-85
2021/03/03 05:52:49;;;;;;;33.07;16.40;;;;;;;5.60;77.59;97407.50;5039015;28;20457;-85
2021/03/03 05:55:16;;;;;;;32.93;17.20;;;;;;;5.56;77.63;97406.97;5039088;28;20443;-87
2021/03/03 05:57:43;;;;;;;35.03;17.23;;;;;;;5.46;78.18;97395.00;5039459;28;20890;-87
2021/03/03 06:00:10;;;;;;;31.77;17.20;;;;;;;5.45;78.78;97413.00;5038704;28;20447;-87
2021/03/03 06:02:37;;;;;;;30.40;16.60;;;;;;;5.42;78.49;97413.94;5039152;28;20553;-86
2021/03/03 06:05:04;;;;;;;32.63;17.83;;;;;;;5.37;78.77;97412.72;5038835;28;20486;-87
2021/03/03 06:07:32;;;;;;;34.70;18.40;;;;;;;5.38;78.63;97416.16;5039389;28;20439;-88
2021/03/03 06:09:58;;;;;;;32.70;17.03;;;;;;;5.34;79.15;97419.03;5039054;28;20482;-88
2021/03/03 06:12:24;;;;;;;30.77;16.30;;;;;;;5.27;79.22;97416.81;5038433;28;20486;-87
2021/03/03 06:14:51;;;;;;;31.17;16.90;;;;;;;5.28;78.76;97420.94;5039656;28;20515;-87
2021/03/03 06:17:17;;;;;;;29.07;16.37;;;;;;;5.25;78.82;97424.59;5039903;28;20444;-87
2021/03/03 06:19:44;;;;;;;30.57;15.83;;;;;;;5.24;79.21;97427.72;5039423;28;20439;-88
2021/03/03 06:22:21;;;;;;;33.63;15.50;;;;;;;5.23;79.24;97423.59;5038505;28;20532;-87
2021/03/03 06:24:48;;;;;;;32.03;17.50;;;;;;;5.20;79.27;97427.94;5039677;28;20950;-86
2021/03/03 06:27:14;;;;;;;28.50;17.90;;;;;;;5.14;79.51;97418.41;5039743;28;20554;-86
2021/03/03 06:29:40;;;;;;;30.70;17.40;;;;;;;5.08;79.35;97431.03;5039838;28;20523;-86
2021/03/03 06:32:06;;;;;;;31.03;17.20;;;;;;;5.09;79.58;97429.81;5038744;28;20503;-86
2021/03/03 06:34:33;;;;;;;41.37;19.30;;;;;;;5.18;79.28;97435.00;5039381;28;20526;-86
2021/03/03 06:37:01;;;;;;;33.50;18.40;;;;;;;5.22;79.17;97430.88;5039043;28;20542;-86
2021/03/03 06:39:28;;;;;;;30.13;17.23;;;;;;;5.23;79.08;97432.34;5038618;28;20968;-86
2021/03/03 06:41:57;;;;;;;36.17;18.33;;;;;;;5.28;78.75;97431.66;5048927;28;20502;-86
2021/03/03 06:44:24;;;;;;;35.03;19.37;;;;;;;5.35;79.18;97436.56;5057880;28;20576;-86
2021/03/03 06:47:05;;;;;;;30.47;17.70;;;;;;;5.49;78.72;97431.50;5058067;28;20419;-87
2021/03/03 06:49:31;;;;;;;37.67;18.70;;;;;;;5.56;77.84;97441.78;5057879;28;20482;-90
2021/03/03 06:51:57;;;;;;;32.27;17.07;;;;;;;5.64;78.03;97448.16;5043159;28;20482;-91
2021/03/03 06:54:25;;;;;;;35.13;18.80;;;;;;;5.71;78.04;97440.38;5041852;28;20475;-92
2021/03/03 06:56:52;;;;;;;25.80;16.20;;;;;;;5.79;77.26;97440.66;5043347;28;20867;-90
2021/03/03 06:59:22;;;;;;;45.07;19.07;;;;;;;5.85;76.82;97434.16;5043990;28;20422;-92
2021/03/03 07:01:50;;;;;;;32.67;15.80;;;;;;;5.95;76.36;97436.63;5042812;28;20451;-90
2021/03/03 07:04:21;;;;;;;32.90;17.00;;;;;;;6.06;76.09;97436.63;5044017;28;20486;-91
2021/03/03 07:06:49;;;;;;;40.80;19.43;;;;;;;6.13;75.44;97444.94;5047629;28;20459;-94
2021/03/03 07:09:16;;;;;;;41.23;21.50;;;;;;;6.24;74.62;97447.66;5047067;28;20479;-92
2021/03/03 07:11:46;;;;;;;28.00;16.73;;;;;;;6.32;73.85;97450.59;5042039;28;20431;-90
2021/03/03 07:14:17;;;;;;;29.37;15.60;;;;;;;6.39;72.53;97444.78;5042789;28;20459;-89
2021/03/03 07:17:06;;;;;;;31.70;17.40;;;;;;;6.54;71.58;97444.53;5041435;28;20398;-88
2021/03/03 07:19:34;;;;;;;28.17;17.50;;;;;;;6.63;71.12;97444.31;5041015;28;20435;-89
2021/03/03 07:22:01;;;;;;;28.37;16.17;;;;;;;6.73;70.93;97456.25;5041444;28;20474;-90
2021/03/03 07:24:27;;;;;;;31.50;16.70;;;;;;;7.13;69.26;97457.72;5043835;28;20470;-90
2021/03/03 07:26:54;;;;;;;25.30;15.40;;;;;;;7.37;67.10;97461.34;5043233;28;20788;-89
2021/03/03 07:29:20;;;;;;;27.93;16.17;;;;;;;7.45;66.76;97456.94;5042407;28;20469;-89
2021/03/03 07:31:48;;;;;;;25.67;15.53;;;;;;;7.59;65.89;97457.13;5052621;28;20434;-90
2021/03/03 07:34:17;;;;;;;38.87;15.20;;;;;;;7.74;64.80;97455.63;5067719;28;20453;-92
2021/03/03 07:36:50;;;;;;;28.57;16.23;;;;;;;7.82;64.15;97459.28;5079486;28;20456;-91
2021/03/03 07:39:19;;;;;;;25.40;15.07;;;;;;;7.85;64.03;97466.34;5081309;28;20456;-93
2021/03/03 07:41:48;;;;;;;31.67;15.07;;;;;;;8.06;63.26;97456.00;5081420;28;20401;-91
2021/03/03 07:44:18;;;;;;;28.40;15.73;;;;;;;8.09;63.31;97460.38;5072934;28;20482;-93
2021/03/03 07:46:47;;;;;;;25.90;15.40;;;;;;;8.17;62.70;97457.91;5070462;28;20465;-90
2021/03/03 07:49:21;;;;;;;30.60;16.37;;;;;;;8.19;62.24;97453.50;5069928;28;20448;-91
2021/03/03 07:51:48;;;;;;;27.67;16.27;;;;;;;8.14;62.62;97456.94;5067697;28;20415;-88
2021/03/03 07:54:14;;;;;;;24.13;15.57;;;;;;;8.12;62.75;97461.34;5065015;28;20549;-88
2021/03/03 07:56:42;;;;;;;23.80;14.77;;;;;;;8.09;62.48;97455.75;5065463;28;20443;-87
2021/03/03 07:59:10;;;;;;;26.53;16.43;;;;;;;8.17;62.35;97464.03;5059531;28;20466;-87
2021/03/03 08:01:37;;;;;;;28.47;16.37;;;;;;;8.23;63.26;97464.72;5049702;28;20491;-91
2021/03/03 08:04:04;;;;;;;27.97;16.30;;;;;;;8.27;62.85;97464.47;5049314;28;20463;-90
2021/03/03 08:06:36;;;;;;;29.00;16.47;;;;;;;8.24;64.77;97466.16;5063136;28;20441;-92
2021/03/03 08:09:26;;;;;;;43.47;23.30;;;;;;;8.20;65.26;97460.34;5060587;28;20560;-90
2021/03/03 08:12:02;;;;;;;35.77;20.27;;;;;;;8.22;65.64;97452.50;5040493;28;20456;-92
2021/03/03 08:14:37;;;;;;;42.00;20.83;;;;;;;8.15;65.38;97447.63;5050532;28;20971;-93
2021/03/03 08:17:07;;;;;;;34.83;17.17;;;;;;;8.21;65.67;97442.22;5048922;28;20410;-93
2021/03/03 08:19:58;;;;;;;33.60;17.93;;;;;;;8.09;65.97;97444.25;5045691;28;20462;-91
2021/03/03 08:22:51;;;;;;;32.50;17.87;;;;;;;8.12;66.19;97445.94;5046812;28;20432;-91
2021/03/03 08:25:43;;;;;;;32.30;18.10;;;;;;;8.13;66.14;97454.75;5048213;28;20429;-93
2021/03/03 08:28:25;;;;;;;28.93;16.90;;;;;;;8.11;66.59;97454.53;5045795;28;20421;-91
2021/03/03 08:31:29;;;;;;;29.87;16.53;;;;;;;8.23;66.14;97453.97;5043905;28;20606;-91
2021/03/03 08:33:57;;;;;;;32.50;19.20;;;;;;;8.16;66.40;97459.88;5005524;28;20663;-92
2021/03/03 08:36:57;;;;;;;35.67;19.97;;;;;;;8.01;66.85;97464.81;5053504;28;20847;-93
2021/03/03 08:39:32;;;;;;;43.67;20.63;;;;;;;7.93;66.91;97459.22;5057284;28;20451;-93
2021/03/03 08:41:59;;;;;;;29.63;18.37;;;;;;;7.86;67.30;97459.03;5054163;28;20409;-93
2021/03/03 08:44:26;;;;;;;34.80;18.43;;;;;;;7.95;67.29;97472.19;5056621;28;20485;-94
2021/03/03 08:46:53;;;;;;;38.20;17.90;;;;;;;7.94;67.44;97458.00;5045517;28;20455;-93
2021/03/03 08:49:27;;;;;;;40.23;20.10;;;;;;;8.00;67.16;97463.34;5049247;28;20450;-93
2021/03/03 08:52:07;;;;;;;31.20;16.37;;;;;;;8.08;66.67;97464.31;5046922;28;20455;-89
2021/03/03 08:54:40;;;;;;;32.57;18.80;;;;;;;8.17;66.86;97458.66;5043327;28;20410;-89
2021/03/03 08:57:33;;;;;;;37.20;18.27;;;;;;;8.29;65.87;97460.06;5043494;28;20712;-91
2021/03/03 09:00:00;;;;;;;31.00;17.20;;;;;;;8.34;65.47;97459.31;5052361;28;20507;-90
2021/03/03 09:02:41;;;;;;;29.13;18.17;;;;;;;8.48;65.05;97454.84;5056049;28;20422;-91
2021/03/03 09:05:10;;;;;;;31.63;19.83;;;;;;;8.53;65.25;97441.34;5050248;28;20507;-93
2021/03/03 09:07:36;;;;;;;34.67;19.17;;;;;;;8.60;64.49;97456.94;5045081;28;20511;-92
2021/03/03 09:10:06;;;;;;;32.93;18.57;;;;;;;8.65;64.57;97452.00;5045272;28;20487;-91
2021/03/03 09:12:37;;;;;;;34.53;19.73;;;;;;;8.73;64.56;97452.94;5048484;28;20456;-90
2021/03/03 09:15:05;;;;;;;36.43;18.90;;;;;;;8.77;64.79;97459.50;5047158;28;20421;-90
2021/03/03 09:17:34;;;;;;;28.23;18.17;;;;;;;8.70;65.10;97457.38;5054156;28;20455;-92
2021/03/03 09:20:02;;;;;;;35.53;19.70;;;;;;;8.75;64.63;97455.88;5051721;28;20418;-89
2021/03/03 09:22:30;;;;;;;34.53;19.23;;;;;;;8.90;64.64;97456.22;5042574;28;20430;-91
2021/03/03 09:25:07;;;;;;;33.30;19.13;;;;;;;8.98;63.77;97459.84;5053369;28;20442;-94
2021/03/03 09:27:34;;;;;;;33.20;19.93;;;;;;;8.98;63.45;97460.59;5050939;28;20398;-92
2021/03/03 09:30:02;;;;;;;33.43;18.33;;;;;;;9.01;63.69;97456.16;5052358;28;20530;-93
2021/03/03 09:32:29;;;;;;;40.53;19.17;;;;;;;9.10;62.95;97451.19;5047003;28;20450;-92
2021/03/03 09:34:56;;;;;;;33.67;20.53;;;;;;;9.08;62.45;97456.31;5042653;28;20402;-91
2021/03/03 09:37:39;;;;;;;33.63;18.13;;;;;;;9.07;62.74;97464.91;5051222;28;20431;-89
2021/03/03 09:40:09;;;;;;;26.53;18.60;;;;;;;9.07;62.68;97459.53;5058602;28;20418;-93
2021/03/03 09:42:54;;;;;;;30.00;18.70;;;;;;;9.26;62.28;97463.03;5059019;28;20514;-91
2021/03/03 09:45:22;;;;;;;30.53;17.80;;;;;;;9.26;62.32;97463.03;5058987;28;20438;-92
2021/03/03 09:47:49;;;;;;;29.27;17.90;;;;;;;9.34;62.54;97457.81;5055478;28;20419;-92
2021/03/03 09:50:17;;;;;;;48.73;22.13;;;;;;;9.37;62.88;97454.84;5046338;28;20552;-91
2021/03/03 09:52:45;;;;;;;30.77;18.90;;;;;;;9.45;62.90;97449.63;5041270;28;20515;-88
2021/03/03 09:55:15;;;;;;;32.33;19.93;;;;;;;9.39;63.29;97448.97;5037947;28;20490;-88
2021/03/03 09:57:43;;;;;;;37.67;19.70;;;;;;;9.42;62.58;97439.88;5049425;28;20458;-91
2021/03/03 10:00:11;;;;;;;32.37;18.43;;;;;;;9.55;62.60;97443.38;5052490;28;20810;-91
2021/03/03 10:02:39;;;;;;;37.27;18.80;;;;;;;9.69;61.51;97447.66;5050662;28;20494;-91
2021/03/03 10:05:07;;;;;;;31.57;17.13;;;;;;;9.72;61.71;97445.16;5053253;28;20438;-90
2021/03/03 10:07:33;;;;;;;34.17;18.73;;;;;;;9.83;62.21;97451.19;5050207;28;20515;-90
2021/03/03 10:10:01;;;;;;;29.67;18.17;;;;;;;9.83;62.45;97445.06;5045164;28;20488;-90
2021/03/03 10:12:36;;;;;;;34.33;17.87;;;;;;;9.94;62.64;97447.59;5045310;28;20437;-90
2021/03/03 10:15:07;;;;;;;31.33;16.80;;;;;;;10.13;61.37;97453.75;5045599;28;20817;-90
2021/03/03 10:17:36;;;;;;;37.60;18.50;;;;;;;10.07;61.54;97451.13;5048976;28;20428;-91
2021/03/03 10:20:07;;;;;;;29.33;18.97;;;;;;;10.04;61.52;97446.03;5053184;28;20427;-93
2021/03/03 10:22:33;;;;;;;35.03;19.57;;;;;;;10.12;61.56;97444.94;5045253;28;20544;-89
2021/03/03 10:25:01;;;;;;;32.30;18.40;;;;;;;10.18;60.96;97445.59;5045627;28;20477;-86
2021/03/03 10:27:31;;;;;;;30.87;17.53;;;;;;;10.21;60.92;97452.69;5046743;28;20502;-92
2021/03/03 10:29:57;;;;;;;31.37;17.33;;;;;;;10.37;60.42;97459.09;5050726;28;20446;-91
2021/03/03 10:32:23;;;;;;;35.30;18.90;;;;;;;10.35;60.44;97450.06;5052859;28;20891;-91
2021/03/03 10:34:51;;;;;;;29.30;18.13;;;;;;;10.48;60.00;97447.44;5043657;28;20839;-93
2021/03/03 10:37:25;;;;;;;25.43;17.10;;;;;;;10.53;59.57;97458.13;5041756;28;20438;-91
2021/03/03 10:39:52;;;;;;;38.60;19.10;;;;;;;10.54;59.72;97454.22;5041928;28;20432;-91
2021/03/03 10:42:23;;;;;;;26.93;17.90;;;;;;;10.67;59.34;97456.22;5046806;28;20424;-91
2021/03/03 10:44:53;;;;;;;26.90;17.27;;;;;;;10.73;59.18;97454.19;5051059;28;20414;-92
2021/03/03 10:47:38;;;;;;;31.57;17.30;;;;;;;10.90;59.55;97454.63;5053507;28;20398;-94
2021/03/03 10:50:05;;;;;;;31.00;18.80;;;;;;;10.92;59.00;97451.44;5052883;28;20488;-92
2021/03/03 10:52:31;;;;;;;30.77;17.70;;;;;;;11.03;58.80;97448.53;5045005;28;20461;-90
2021/03/03 10:54:58;;;;;;;27.27;17.03;;;;;;;11.20;58.23;97449.00;5056369;28;20422;-93
2021/03/03 10:57:25;;;;;;;31.80;18.53;;;;;;;11.22;58.13;97452.63;5053927;28;20508;-90
2021/03/03 11:00:02;;;;;;;34.60;17.70;;;;;;;11.30;58.08;97450.06;5050181;28;20439;-91
2021/03/03 11:02:29;;;;;;;23.80;17.30;;;;;;;11.48;56.93;97448.50;5042340;28;20405;-92
2021/03/03 11:04:55;;;;;;;30.03;17.43;;;;;;;11.48;57.41;97448.50;5042421;28;20510;-90
2021/03/03 11:07:21;;;;;;;27.50;17.97;;;;;;;11.51;57.69;97442.06;5059842;28;20523;-91
2021/03/03 11:09:52;;;;;;;31.10;17.40;;;;;;;11.38;58.64;97440.09;5074376;28;20489;-93
2021/03/03 11:12:22;;;;;;;26.60;17.70;;;;;;;11.55;57.94;97443.22;5074038;28;20809;-90
2021/03/03 11:14:48;;;;;;;35.20;17.93;;;;;;;11.68;57.64;97434.38;5066508;28;20409;-91
2021/03/03 11:17:15;;;;;;;27.37;17.93;;;;;;;11.65;58.16;97428.03;5067377;28;20410;-90
2021/03/03 11:19:41;;;;;;;25.93;16.87;;;;;;;11.68;57.89;97431.69;5064724;28;20448;-90
2021/03/03 11:22:08;;;;;;;32.57;18.53;;;;;;;11.82;57.92;97425.75;5064452;28;20442;-91
2021/03/03 11:24:35;;;;;;;27.13;17.90;;;;;;;11.93;57.07;97421.38;5064060;28;20963;-90
2021/03/03 11:27:01;;;;;;;31.23;18.60;;;;;;;11.82;56.81;97416.91;5066846;28;20450;-91
2021/03/03 11:29:27;;;;;;;29.87;17.77;;;;;;;11.91;57.17;97410.34;5064468;28;20576;-90
2021/03/03 11:31:53;;;;;;;35.30;18.73;;;;;;;11.91;57.50;97407.63;5065679;28;20444;-90